createdAt,value
2022-12-01T00:00:10.235Z,59.80
2022-12-01T00:01:10.212Z,58.00
2022-12-01T00:02:10.354Z,59.10
2022-12-01T00:03:10.297Z,60.60
2022-12-01T00:04:10.175Z,62.10
2022-12-01T00:05:10.180Z,62.00
2022-12-01T00:06:10.153Z,60.80
2022-12-01T00:07:10.156Z,59.40
2022-12-01T00:08:10.161Z,56.20
2022-12-01T00:09:10.897Z,57.10
2022-12-01T00:10:10.126Z,58.40
2022-12-01T00:11:10.116Z,59.20
2022-12-01T00:12:10.113Z,61.60
2022-12-01T00:13:10.085Z,59.10
2022-12-01T00:14:10.076Z,60.90
2022-12-01T00:15:10.065Z,62.30
2022-12-01T00:16:10.074Z,59.90
2022-12-01T00:17:10.053Z,58.90
2022-12-01T00:18:10.032Z,60.80
2022-12-01T00:19:10.023Z,58.50
2022-12-01T00:20:10.002Z,58.10
2022-12-01T00:21:10.008Z,58.50
2022-12-01T00:22:09.997Z,56.40
2022-12-01T00:23:09.988Z,55.30
2022-12-01T00:24:09.959Z,59.90
2022-12-01T00:26:03.043Z,59.30
2022-12-01T00:27:02.949Z,57.00
2022-12-01T00:28:02.951Z,60.50
2022-12-01T00:29:02.471Z,60.50
2022-12-01T00:30:02.469Z,59.00
2022-12-01T00:31:02.444Z,62.00
2022-12-01T00:32:02.488Z,58.50
2022-12-01T00:33:02.396Z,57.10
2022-12-01T00:34:05.628Z,56.40
2022-12-01T00:35:03.379Z,61.40
2022-12-01T00:36:02.380Z,60.10
2022-12-01T00:37:02.341Z,62.30
2022-12-01T00:38:02.341Z,59.10
2022-12-01T00:39:02.329Z,60.30
2022-12-01T00:40:02.408Z,56.70
2022-12-01T00:41:02.321Z,59.40
2022-12-01T00:42:02.318Z,58.10
2022-12-01T00:43:02.290Z,62.20
2022-12-01T00:44:02.306Z,57.10
2022-12-01T00:45:02.332Z,58.60
2022-12-01T00:46:02.344Z,59.00
2022-12-01T00:47:02.238Z,57.60
2022-12-01T00:48:02.256Z,60.30
2022-12-01T00:49:02.262Z,58.40
2022-12-01T00:50:02.217Z,53.90
2022-12-01T00:51:02.216Z,57.20
2022-12-01T00:52:02.219Z,58.80
2022-12-01T00:53:02.231Z,60.00
2022-12-01T00:54:02.164Z,60.20
2022-12-01T00:55:02.259Z,59.90
2022-12-01T00:56:02.198Z,60.30
2022-12-01T00:57:02.122Z,58.20
2022-12-01T00:58:02.140Z,53.80
2022-12-01T00:59:02.159Z,58.70
2022-12-01T01:00:02.070Z,57.80
2022-12-01T01:01:02.278Z,57.40
2022-12-01T01:02:02.102Z,59.40
2022-12-01T01:03:02.091Z,56.50
2022-12-01T01:04:02.064Z,54.00
2022-12-01T01:05:02.037Z,58.40
2022-12-01T01:06:02.060Z,59.80
2022-12-01T01:07:02.037Z,56.50
2022-12-01T01:08:02.070Z,56.50
2022-12-01T01:09:02.079Z,56.80
2022-12-01T01:10:02.009Z,56.50
2022-12-01T01:11:01.998Z,54.90
2022-12-01T01:12:02.025Z,56.90
2022-12-01T01:13:01.962Z,56.60
2022-12-01T01:14:02.003Z,55.20
2022-12-01T01:15:01.969Z,53.40
2022-12-01T01:16:01.928Z,54.40
2022-12-01T01:17:01.965Z,55.00
2022-12-01T01:18:01.897Z,54.40
2022-12-01T01:19:01.957Z,54.50
2022-12-01T01:20:01.899Z,54.10
2022-12-01T01:21:01.872Z,49.30
2022-12-01T01:22:01.891Z,54.90
2022-12-01T01:23:01.945Z,56.80
2022-12-01T01:24:01.863Z,58.70
2022-12-01T01:25:01.805Z,57.70
2022-12-01T01:26:01.867Z,57.00
2022-12-01T01:27:01.797Z,56.00
2022-12-01T01:28:01.806Z,53.70
2022-12-01T01:29:01.778Z,54.70
2022-12-01T01:30:01.766Z,55.10
2022-12-01T01:31:01.771Z,54.40
2022-12-01T01:32:01.757Z,56.50
2022-12-01T01:33:01.713Z,56.10
2022-12-01T01:34:01.743Z,55.30
2022-12-01T01:35:01.698Z,55.00
2022-12-01T01:36:01.699Z,56.80
2022-12-01T01:37:01.704Z,53.40
2022-12-01T01:38:01.666Z,54.70
2022-12-01T01:39:01.640Z,55.50
2022-12-01T01:40:01.699Z,55.80
2022-12-01T01:41:01.630Z,56.80
2022-12-01T01:42:01.644Z,55.00
2022-12-01T01:43:01.599Z,56.90
2022-12-01T01:44:01.594Z,59.20
2022-12-01T01:45:01.593Z,56.80
2022-12-01T01:46:01.649Z,56.90
2022-12-01T01:47:01.591Z,55.50
2022-12-01T01:48:01.588Z,55.70
2022-12-01T01:49:01.609Z,57.30
2022-12-01T01:50:01.544Z,58.80
2022-12-01T01:51:01.528Z,53.60
2022-12-01T01:52:01.615Z,55.90
2022-12-01T01:53:01.539Z,54.30
2022-12-01T01:54:01.495Z,53.90
2022-12-01T01:55:01.539Z,55.20
2022-12-01T01:56:01.477Z,54.40
2022-12-01T01:57:01.540Z,53.70
2022-12-01T01:58:01.478Z,58.10
2022-12-01T01:59:01.460Z,54.50
2022-12-01T02:00:01.437Z,54.30
2022-12-01T02:01:01.477Z,57.40
2022-12-01T02:02:01.466Z,55.10
2022-12-01T02:03:01.482Z,53.90
2022-12-01T02:04:01.393Z,54.80
2022-12-01T02:05:01.402Z,53.00
2022-12-01T02:06:04.674Z,57.80
2022-12-01T02:07:01.410Z,54.10
2022-12-01T02:08:01.397Z,60.10
2022-12-01T02:09:01.323Z,56.60
2022-12-01T02:10:01.357Z,57.20
2022-12-01T02:11:01.341Z,57.90
2022-12-01T02:12:01.298Z,59.20
2022-12-01T02:13:01.300Z,61.70
2022-12-01T02:14:01.315Z,59.70
2022-12-01T02:15:01.316Z,60.80
2022-12-01T02:16:01.271Z,58.30
2022-12-01T02:17:01.310Z,58.90
2022-12-01T02:18:01.246Z,57.00
2022-12-01T02:19:01.280Z,56.40
2022-12-01T02:20:01.205Z,61.90
2022-12-01T02:21:01.201Z,57.10
2022-12-01T02:22:01.202Z,58.90
2022-12-01T02:23:01.235Z,64.90
2022-12-01T02:24:01.184Z,62.00
2022-12-01T02:25:01.244Z,61.00
2022-12-01T02:26:01.189Z,61.60
2022-12-01T02:27:01.169Z,62.90
2022-12-01T02:28:01.145Z,61.00
2022-12-01T02:29:01.154Z,65.40
2022-12-01T02:30:01.143Z,58.40
2022-12-01T02:31:01.138Z,64.20
2022-12-01T02:32:01.146Z,61.10
2022-12-01T02:33:01.093Z,60.80
2022-12-01T02:34:01.101Z,58.20
2022-12-01T02:35:01.097Z,63.30
2022-12-01T02:36:01.150Z,59.70
2022-12-01T02:37:01.044Z,61.10
2022-12-01T02:38:01.046Z,60.30
2022-12-01T02:39:01.034Z,62.80
2022-12-01T02:40:01.021Z,59.40
2022-12-01T02:41:01.067Z,60.20
2022-12-01T02:42:01.051Z,67.20
2022-12-01T02:43:01.059Z,61.50
2022-12-01T02:44:00.981Z,59.10
2022-12-01T02:45:00.962Z,60.40
2022-12-01T02:46:01.007Z,64.50
2022-12-01T02:47:00.981Z,61.20
2022-12-01T02:48:00.941Z,61.70
2022-12-01T02:49:00.915Z,64.40
2022-12-01T02:50:00.898Z,67.50
2022-12-01T02:51:00.912Z,64.70
2022-12-01T02:52:00.896Z,65.00
2022-12-01T02:53:00.878Z,64.90
2022-12-01T02:54:00.888Z,65.40
2022-12-01T02:55:00.839Z,65.50
2022-12-01T02:56:00.870Z,65.50
2022-12-01T02:57:00.864Z,65.80
2022-12-01T02:58:00.869Z,66.30
2022-12-01T02:59:00.880Z,69.70
2022-12-01T03:00:00.824Z,64.30
2022-12-01T03:01:00.807Z,64.60
2022-12-01T03:02:00.794Z,65.40
2022-12-01T03:03:00.930Z,66.20
2022-12-01T03:04:00.787Z,67.70
2022-12-01T03:05:00.753Z,70.60
2022-12-01T03:06:00.732Z,68.00
2022-12-01T03:07:00.810Z,73.30
2022-12-01T03:08:00.735Z,66.60
2022-12-01T03:09:00.732Z,67.00
2022-12-01T03:10:00.698Z,69.80
2022-12-01T03:11:00.694Z,69.40
2022-12-01T03:12:00.676Z,71.30
2022-12-01T03:13:00.663Z,72.30
2022-12-01T03:14:00.663Z,73.60
2022-12-01T03:15:00.633Z,68.10
2022-12-01T03:16:00.729Z,73.20
2022-12-01T03:17:00.617Z,74.60
2022-12-01T03:18:00.592Z,78.10
2022-12-01T03:19:00.617Z,74.20
2022-12-01T03:20:00.627Z,76.10
2022-12-01T03:21:00.587Z,76.90
2022-12-01T03:22:00.615Z,72.30
2022-12-01T03:23:00.541Z,76.90
2022-12-01T03:24:00.576Z,78.00
2022-12-01T03:25:00.536Z,70.30
2022-12-01T03:26:00.544Z,74.70
2022-12-01T03:27:00.504Z,80.50
2022-12-01T03:28:20.717Z,76.10
2022-12-01T03:29:01.597Z,75.10
2022-12-01T03:30:00.463Z,76.40
2022-12-01T03:31:00.513Z,74.50
2022-12-01T03:32:00.447Z,74.70
2022-12-01T03:33:00.445Z,78.00
2022-12-01T03:34:00.429Z,81.60
2022-12-01T03:35:00.425Z,79.80
2022-12-01T03:36:00.530Z,78.90
2022-12-01T03:37:00.399Z,81.30
2022-12-01T03:38:00.389Z,76.30
2022-12-01T03:39:00.409Z,73.90
2022-12-01T03:40:01.261Z,81.90
2022-12-01T03:41:00.358Z,79.00
2022-12-01T03:42:00.363Z,75.80
2022-12-01T03:43:00.342Z,74.80
2022-12-01T03:44:00.352Z,77.20
2022-12-01T03:45:00.331Z,76.60
2022-12-01T03:46:00.377Z,78.90
2022-12-01T03:47:00.319Z,79.80
2022-12-01T03:48:00.291Z,76.90
2022-12-01T03:49:00.278Z,77.60
2022-12-01T03:50:00.297Z,77.70
2022-12-01T03:51:00.246Z,78.80
2022-12-01T03:52:00.246Z,80.10
2022-12-01T03:53:00.217Z,79.40
2022-12-01T03:54:00.225Z,78.50
2022-12-01T03:55:00.225Z,74.90
2022-12-01T03:56:00.202Z,72.50
2022-12-01T03:57:00.193Z,77.40
2022-12-01T03:58:00.167Z,78.40
2022-12-01T03:59:00.149Z,75.30
2022-12-01T04:00:00.167Z,76.30
2022-12-01T04:01:00.151Z,74.50
2022-12-01T04:02:00.206Z,79.90
2022-12-01T04:03:00.156Z,75.30
2022-12-01T04:04:00.100Z,75.30
2022-12-01T04:05:00.117Z,79.40
2022-12-01T04:06:00.121Z,72.20
2022-12-01T04:07:00.079Z,77.20
2022-12-01T04:08:00.204Z,79.70
2022-12-01T04:09:00.043Z,80.70
2022-12-01T04:10:00.030Z,76.70
2022-12-01T04:11:00.078Z,82.30
2022-12-01T04:12:00.033Z,73.00
2022-12-01T04:13:00.053Z,73.30
2022-12-01T04:14:00.017Z,74.30
2022-12-01T04:15:00.017Z,76.40
2022-12-01T04:16:00.017Z,77.30
2022-12-01T04:16:59.982Z,74.20
2022-12-01T04:17:59.949Z,80.30
2022-12-01T04:19:00.024Z,79.60
2022-12-01T04:19:59.918Z,81.30
2022-12-01T04:20:59.951Z,77.30
2022-12-01T04:21:59.898Z,74.90
2022-12-01T04:22:59.946Z,74.80
2022-12-01T04:23:59.883Z,74.90
2022-12-01T04:24:59.918Z,80.40
2022-12-01T04:25:59.876Z,78.10
2022-12-01T04:26:59.877Z,76.10
2022-12-01T04:27:59.872Z,75.90
2022-12-01T04:28:59.878Z,75.10
2022-12-01T04:29:59.822Z,79.30
2022-12-01T04:30:59.879Z,73.80
2022-12-01T04:31:59.829Z,68.50
2022-12-01T04:32:59.807Z,79.90
2022-12-01T04:33:59.784Z,78.70
2022-12-01T04:34:59.817Z,75.30
2022-12-01T04:35:59.785Z,73.50
2022-12-01T04:36:59.759Z,75.00
2022-12-01T04:37:59.730Z,75.10
2022-12-01T04:38:59.755Z,76.70
2022-12-01T04:39:59.713Z,75.90
2022-12-01T04:40:59.697Z,74.30
2022-12-01T04:41:59.680Z,73.50
2022-12-01T04:42:59.683Z,74.30
2022-12-01T04:43:59.655Z,74.20
2022-12-01T04:44:59.724Z,76.90
2022-12-01T04:45:59.669Z,78.70
2022-12-01T04:46:59.733Z,74.00
2022-12-01T04:47:59.663Z,72.80
2022-12-01T04:48:59.659Z,74.00
2022-12-01T04:49:59.618Z,72.30
2022-12-01T04:50:59.720Z,71.60
2022-12-01T04:51:59.580Z,69.30
2022-12-01T04:52:59.574Z,66.50
2022-12-01T04:53:59.538Z,66.80
2022-12-01T04:54:59.544Z,65.10
2022-12-01T04:55:59.538Z,69.00
2022-12-01T04:56:59.536Z,67.50
2022-12-01T04:57:59.509Z,63.20
2022-12-01T04:58:59.504Z,59.70
2022-12-01T04:59:59.521Z,63.40
2022-12-01T05:00:59.595Z,63.70
2022-12-01T05:01:59.559Z,67.20
2022-12-01T05:02:59.465Z,61.70
2022-12-01T05:03:59.466Z,64.40
2022-12-01T05:04:59.442Z,65.30
2022-12-01T05:05:59.490Z,61.80
2022-12-01T05:06:59.441Z,59.70
2022-12-01T05:07:59.442Z,63.20
2022-12-01T05:08:59.430Z,61.20
2022-12-01T05:09:59.404Z,62.10
2022-12-01T05:10:59.494Z,63.30
2022-12-01T05:11:59.393Z,61.10
2022-12-01T05:12:59.427Z,58.40
2022-12-01T05:13:59.394Z,64.60
2022-12-01T05:14:59.350Z,62.10
2022-12-01T05:15:59.475Z,66.10
2022-12-01T05:16:59.337Z,61.60
2022-12-01T05:17:59.381Z,70.30
2022-12-01T05:18:59.393Z,68.40
2022-12-01T05:19:59.288Z,66.90
2022-12-01T05:20:59.338Z,61.40
2022-12-01T05:21:59.327Z,62.20
2022-12-01T05:23:07.144Z,66.00
2022-12-01T05:24:00.251Z,64.70
2022-12-01T05:24:59.509Z,68.10
2022-12-01T05:25:59.212Z,65.10
2022-12-01T05:26:59.226Z,64.30
2022-12-01T05:27:59.230Z,64.30
2022-12-01T05:28:59.200Z,61.80
2022-12-01T05:29:59.164Z,67.80
2022-12-01T05:30:59.173Z,66.10
2022-12-01T05:31:59.196Z,67.10
2022-12-01T05:32:59.143Z,63.60
2022-12-01T05:33:59.171Z,65.40
2022-12-01T05:34:59.139Z,65.70
2022-12-01T05:35:59.115Z,69.70
2022-12-01T05:37:06.834Z,68.40
2022-12-01T05:38:03.172Z,65.20
2022-12-01T05:39:00.049Z,63.80
2022-12-01T05:39:59.984Z,62.40
2022-12-01T05:40:59.066Z,64.00
2022-12-01T05:41:59.036Z,61.50
2022-12-01T05:42:59.004Z,61.80
2022-12-01T05:43:58.994Z,66.00
2022-12-01T05:44:59.007Z,64.00
2022-12-01T05:45:59.003Z,66.80
2022-12-01T05:46:58.977Z,70.10
2022-12-01T05:47:58.952Z,68.80
2022-12-01T05:48:58.941Z,69.70
2022-12-01T05:50:03.759Z,64.40
2022-12-01T05:50:59.911Z,65.60
2022-12-01T05:51:58.917Z,59.40
2022-12-01T05:52:58.896Z,59.80
2022-12-01T05:53:58.895Z,64.40
2022-12-01T05:54:58.900Z,62.30
2022-12-01T05:55:58.861Z,63.80
2022-12-01T05:56:58.918Z,66.70
2022-12-01T05:57:58.830Z,66.20
2022-12-01T05:58:58.834Z,65.90
2022-12-01T05:59:58.812Z,63.90
2022-12-01T06:00:58.823Z,69.10
2022-12-01T06:01:58.857Z,71.60
2022-12-01T06:02:58.789Z,73.30
2022-12-01T06:03:58.819Z,66.00
2022-12-01T06:04:58.763Z,69.60
2022-12-01T06:05:58.744Z,68.50
2022-12-01T06:06:58.784Z,66.90
2022-12-01T06:07:58.772Z,69.70
2022-12-01T06:08:58.733Z,68.70
2022-12-01T06:09:58.698Z,71.10
2022-12-01T06:10:58.702Z,68.90
2022-12-01T06:11:58.692Z,63.60
2022-12-01T06:12:58.697Z,66.60
2022-12-01T06:13:58.660Z,65.10
2022-12-01T06:14:58.701Z,60.60
2022-12-01T06:15:58.637Z,65.40
2022-12-01T06:16:58.682Z,62.70
2022-12-01T06:17:58.619Z,66.30
2022-12-01T06:18:58.656Z,66.50
2022-12-01T06:19:58.621Z,62.90
2022-12-01T06:20:58.591Z,64.80
2022-12-01T06:21:58.567Z,68.70
2022-12-01T06:22:58.591Z,64.40
2022-12-01T06:23:58.577Z,63.10
2022-12-01T06:24:58.561Z,65.30
2022-12-01T06:25:58.532Z,66.80
2022-12-01T06:26:58.526Z,64.30
2022-12-01T06:27:58.519Z,65.80
2022-12-01T06:28:58.547Z,63.70
2022-12-01T06:29:58.484Z,64.00
2022-12-01T06:31:03.187Z,60.50
2022-12-01T06:31:59.515Z,62.50
2022-12-01T06:32:58.512Z,58.70
2022-12-01T06:33:58.494Z,63.60
2022-12-01T06:34:58.458Z,58.30
2022-12-01T06:35:58.421Z,61.00
2022-12-01T06:36:58.466Z,64.50
2022-12-01T06:37:58.424Z,59.50
2022-12-01T06:38:58.417Z,62.00
2022-12-01T06:39:58.379Z,65.40
2022-12-01T06:40:58.403Z,59.60
2022-12-01T06:41:58.356Z,61.70
2022-12-01T06:42:58.428Z,60.30
2022-12-01T06:43:58.363Z,58.40
2022-12-01T06:44:58.344Z,63.10
2022-12-01T06:46:01.920Z,61.60
2022-12-01T06:46:58.315Z,60.40
2022-12-01T06:47:58.294Z,65.60
2022-12-01T06:48:58.310Z,57.40
2022-12-01T06:49:58.281Z,64.70
2022-12-01T06:50:58.318Z,63.10
2022-12-01T06:52:00.755Z,55.50
2022-12-01T06:52:59.395Z,57.20
2022-12-01T06:54:03.769Z,56.40
2022-12-01T06:55:00.088Z,58.30
2022-12-01T06:55:58.200Z,59.10
2022-12-01T06:56:58.211Z,58.50
2022-12-01T06:57:58.228Z,56.10
2022-12-01T06:58:58.222Z,59.50
2022-12-01T06:59:58.175Z,50.70
2022-12-01T07:00:58.188Z,53.50
2022-12-01T07:01:58.202Z,53.40
2022-12-01T07:02:58.209Z,58.00
2022-12-01T07:03:58.152Z,51.40
2022-12-01T07:04:58.117Z,51.60
2022-12-01T07:05:58.129Z,54.70
2022-12-01T07:06:58.131Z,53.30
2022-12-01T07:07:59.866Z,51.30
2022-12-01T07:08:58.093Z,54.70
2022-12-01T07:09:58.064Z,54.80
2022-12-01T07:10:58.104Z,54.70
2022-12-01T07:11:58.038Z,50.40
2022-12-01T07:12:58.041Z,53.70
2022-12-01T07:13:58.039Z,55.50
2022-12-01T07:14:58.014Z,53.20
2022-12-01T07:15:57.990Z,58.90
2022-12-01T07:16:58.069Z,54.40
2022-12-01T07:17:57.969Z,55.70
2022-12-01T07:18:58.009Z,54.30
2022-12-01T07:19:57.961Z,58.00
2022-12-01T07:20:57.951Z,58.60
2022-12-01T07:21:57.929Z,57.50
2022-12-01T07:22:57.929Z,57.70
2022-12-01T07:23:57.900Z,58.80
2022-12-01T07:24:57.913Z,59.10
2022-12-01T07:25:57.886Z,56.80
2022-12-01T07:26:57.900Z,62.30
2022-12-01T07:27:57.859Z,57.50
2022-12-01T07:28:57.856Z,56.20
2022-12-01T07:29:57.838Z,58.40
2022-12-01T07:30:57.874Z,60.40
2022-12-01T07:31:57.844Z,60.90
2022-12-01T07:32:57.816Z,59.70
2022-12-01T07:33:57.813Z,62.10
2022-12-01T07:34:57.845Z,57.10
2022-12-01T07:35:57.775Z,59.10
2022-12-01T07:36:57.773Z,57.70
2022-12-01T07:37:57.768Z,60.30
2022-12-01T07:38:57.780Z,58.70
2022-12-01T07:39:57.726Z,58.30
2022-12-01T07:40:57.747Z,59.90
2022-12-01T07:41:57.762Z,59.20
2022-12-01T07:42:57.717Z,59.90
2022-12-01T07:43:57.740Z,57.90
2022-12-01T07:44:57.689Z,58.20
2022-12-01T07:45:57.728Z,58.30
2022-12-01T07:46:57.675Z,54.10
2022-12-01T07:47:57.641Z,62.50
2022-12-01T07:48:57.715Z,59.40
2022-12-01T07:49:57.649Z,57.40
2022-12-01T07:50:57.623Z,59.80
2022-12-01T07:51:57.633Z,60.20
2022-12-01T07:52:57.594Z,59.00
2022-12-01T07:53:57.708Z,58.70
2022-12-01T07:54:57.567Z,60.80
2022-12-01T07:55:57.589Z,61.20
2022-12-01T07:56:57.556Z,64.30
2022-12-01T07:57:57.556Z,62.30
2022-12-01T07:58:57.546Z,62.20
2022-12-01T07:59:57.577Z,60.20
2022-12-01T08:00:57.512Z,58.60
2022-12-01T08:01:57.577Z,59.30
2022-12-01T08:02:57.525Z,57.50
2022-12-01T08:03:57.493Z,55.30
2022-12-01T08:04:57.493Z,52.20
2022-12-01T08:05:57.455Z,59.40
2022-12-01T08:06:57.498Z,56.20
2022-12-01T08:07:57.508Z,53.20
2022-12-01T08:08:57.429Z,54.30
2022-12-01T08:09:57.444Z,51.70
2022-12-01T08:10:57.394Z,52.50
2022-12-01T08:11:57.561Z,56.30
2022-12-01T08:12:57.373Z,54.20
2022-12-01T08:13:57.377Z,55.80
2022-12-01T08:14:57.364Z,54.70
2022-12-01T08:15:57.468Z,51.30
2022-12-01T08:16:57.331Z,51.30
2022-12-01T08:17:57.330Z,48.20
2022-12-01T08:18:57.339Z,47.80
2022-12-01T08:19:57.340Z,47.00
2022-12-01T08:20:57.333Z,48.70
2022-12-01T08:21:57.289Z,49.40
2022-12-01T08:22:57.327Z,45.00
2022-12-01T08:23:57.274Z,44.50
2022-12-01T08:24:57.270Z,46.00
2022-12-01T08:25:57.256Z,45.70
2022-12-01T08:26:57.258Z,47.20
2022-12-01T08:27:57.291Z,46.40
2022-12-01T08:28:57.204Z,46.70
2022-12-01T08:29:57.230Z,49.40
2022-12-01T08:30:57.381Z,48.90
2022-12-01T08:31:57.205Z,44.20
2022-12-01T08:32:57.287Z,48.20
2022-12-01T08:33:57.242Z,46.10
2022-12-01T08:34:57.180Z,45.20
2022-12-01T08:35:57.165Z,45.90
2022-12-01T08:36:57.121Z,50.00
2022-12-01T08:37:57.132Z,48.00
2022-12-01T08:38:57.101Z,52.30
2022-12-01T08:39:57.123Z,50.60
2022-12-01T08:40:57.099Z,56.50
2022-12-01T08:41:57.079Z,61.10
2022-12-01T08:42:57.060Z,61.20
2022-12-01T08:43:58.746Z,55.00
2022-12-01T08:44:57.064Z,60.30
2022-12-01T08:45:57.036Z,56.40
2022-12-01T08:46:57.198Z,54.50
2022-12-01T08:47:57.009Z,52.10
2022-12-01T08:48:56.998Z,55.20
2022-12-01T08:49:57.007Z,57.00
2022-12-01T08:50:56.995Z,59.60
2022-12-01T08:51:56.965Z,53.10
2022-12-01T08:52:56.949Z,61.10
2022-12-01T08:53:56.952Z,56.50
2022-12-01T08:54:56.937Z,58.10
2022-12-01T08:55:56.918Z,60.50
2022-12-01T08:56:56.899Z,58.80
2022-12-01T08:57:56.897Z,57.80
2022-12-01T08:58:56.869Z,59.40
2022-12-01T08:59:56.908Z,58.50
2022-12-01T09:00:56.854Z,58.30
2022-12-01T09:01:56.891Z,60.00
2022-12-01T09:02:56.867Z,59.70
2022-12-01T09:03:56.836Z,61.40
2022-12-01T09:04:56.835Z,59.70
2022-12-01T09:05:56.804Z,62.90
2022-12-01T09:06:56.819Z,63.40
2022-12-01T09:07:56.863Z,58.40
2022-12-01T09:08:56.783Z,62.80
2022-12-01T09:09:56.759Z,62.50
2022-12-01T09:10:56.770Z,58.00
2022-12-01T09:11:56.756Z,60.20
2022-12-01T09:12:56.728Z,49.70
2022-12-01T09:13:56.752Z,57.20
2022-12-01T09:14:56.755Z,57.00
2022-12-01T09:15:56.781Z,54.10
2022-12-01T09:16:56.690Z,61.80
2022-12-01T09:17:56.685Z,54.90
2022-12-01T09:18:56.651Z,56.70
2022-12-01T09:19:56.694Z,55.70
2022-12-01T09:20:56.642Z,54.60
2022-12-01T09:21:56.642Z,55.80
2022-12-01T09:22:56.639Z,53.20
2022-12-01T09:23:56.625Z,53.10
2022-12-01T09:24:56.617Z,50.50
2022-12-01T09:25:56.611Z,52.80
2022-12-01T09:26:56.628Z,48.60
2022-12-01T09:27:56.588Z,51.70
2022-12-01T09:28:56.560Z,50.00
2022-12-01T09:29:56.560Z,48.00
2022-12-01T09:30:56.564Z,47.80
2022-12-01T09:31:56.541Z,45.70
2022-12-01T09:32:56.509Z,49.10
2022-12-01T09:33:56.540Z,51.60
2022-12-01T09:34:56.484Z,49.40
2022-12-01T09:35:56.578Z,49.00
2022-12-01T09:36:56.480Z,50.60
2022-12-01T09:37:56.474Z,50.50
2022-12-01T09:38:56.469Z,49.40
2022-12-01T09:39:56.456Z,53.00
2022-12-01T09:40:56.492Z,53.30
2022-12-01T09:41:56.430Z,50.00
2022-12-01T09:42:56.426Z,50.20
2022-12-01T09:43:56.392Z,54.20
2022-12-01T09:44:56.395Z,55.30
2022-12-01T09:45:56.397Z,50.40
2022-12-01T09:46:56.435Z,50.20
2022-12-01T09:47:56.367Z,53.10
2022-12-01T09:48:56.346Z,57.00
2022-12-01T09:49:56.348Z,62.60
2022-12-01T09:50:56.337Z,65.20
2022-12-01T09:51:56.308Z,57.50
2022-12-01T09:52:56.298Z,53.70
2022-12-01T09:53:56.307Z,53.00
2022-12-01T09:54:56.272Z,56.50
2022-12-01T09:56:03.103Z,56.30
2022-12-01T09:56:57.247Z,56.10
2022-12-01T09:57:56.282Z,53.70
2022-12-01T09:58:56.237Z,51.70
2022-12-01T09:59:56.236Z,54.80
2022-12-01T10:00:56.333Z,50.80
2022-12-01T10:01:56.286Z,56.10
2022-12-01T10:02:56.200Z,53.50
2022-12-01T10:03:56.223Z,52.90
2022-12-01T10:04:56.210Z,52.30
2022-12-01T10:06:25.953Z,55.30
2022-12-01T10:06:57.176Z,53.90
2022-12-01T10:07:56.215Z,51.10
2022-12-01T10:08:56.116Z,53.60
2022-12-01T10:09:56.117Z,53.30
2022-12-01T10:10:56.119Z,53.10
2022-12-01T10:11:56.103Z,50.60
2022-12-01T10:12:56.085Z,49.60
2022-12-01T10:13:56.068Z,52.20
2022-12-01T10:14:56.050Z,52.60
2022-12-01T10:15:56.124Z,50.60
2022-12-01T10:16:56.025Z,52.70
2022-12-01T10:17:56.050Z,50.70
2022-12-01T10:18:56.005Z,49.40
2022-12-01T10:19:56.013Z,49.80
2022-12-01T10:20:56.014Z,48.80
2022-12-01T10:21:56.001Z,48.20
2022-12-01T10:22:55.962Z,51.80
2022-12-01T10:23:55.969Z,53.10
2022-12-01T10:24:56.176Z,54.40
2022-12-01T10:25:55.944Z,52.40
2022-12-01T10:26:55.943Z,54.50
2022-12-01T10:27:55.933Z,59.00
2022-12-01T10:28:55.902Z,60.30
2022-12-01T10:29:55.915Z,58.70
2022-12-01T10:30:55.885Z,56.80
2022-12-01T10:31:56.002Z,53.30
2022-12-01T10:32:55.876Z,57.90
2022-12-01T10:33:55.859Z,56.50
2022-12-01T10:34:55.875Z,59.10
2022-12-01T10:35:55.852Z,55.30
2022-12-01T10:36:55.821Z,61.60
2022-12-01T10:37:55.897Z,61.20
2022-12-01T10:38:55.799Z,56.70
2022-12-01T10:39:55.800Z,56.20
2022-12-01T10:40:55.770Z,58.30
2022-12-01T10:41:55.770Z,57.00
2022-12-01T10:42:55.768Z,58.50
2022-12-01T10:43:55.764Z,59.90
2022-12-01T10:44:55.730Z,57.20
2022-12-01T10:45:55.777Z,60.20
2022-12-01T10:46:55.765Z,56.20
2022-12-01T10:47:57.709Z,62.70
2022-12-01T10:48:55.701Z,68.60
2022-12-01T10:49:55.688Z,71.90
2022-12-01T10:50:55.663Z,73.80
2022-12-01T10:51:55.673Z,67.90
2022-12-01T10:52:55.649Z,60.40
2022-12-01T10:53:55.639Z,62.00
2022-12-01T10:54:55.623Z,59.60
2022-12-01T10:55:55.607Z,61.30
2022-12-01T10:56:55.603Z,57.10
2022-12-01T10:57:55.786Z,58.50
2022-12-01T10:58:55.582Z,58.10
2022-12-01T10:59:55.565Z,52.50
2022-12-01T11:01:00.363Z,55.10
2022-12-01T11:01:56.762Z,56.80
2022-12-01T11:02:55.724Z,55.20
2022-12-01T11:03:55.577Z,59.10
2022-12-01T11:04:55.512Z,58.70
2022-12-01T11:05:55.510Z,56.40
2022-12-01T11:06:55.507Z,55.10
2022-12-01T11:07:55.506Z,54.50
2022-12-01T11:08:55.487Z,53.30
2022-12-01T11:09:55.492Z,55.30
2022-12-01T11:10:55.454Z,52.60
2022-12-01T11:11:55.438Z,58.50
2022-12-01T11:12:55.427Z,53.70
2022-12-01T11:13:55.416Z,53.20
2022-12-01T11:14:55.432Z,57.50
2022-12-01T11:15:55.410Z,53.90
2022-12-01T11:16:55.410Z,53.40
2022-12-01T11:17:55.376Z,49.80
2022-12-01T11:18:55.432Z,53.60
2022-12-01T11:19:55.387Z,52.70
2022-12-01T11:20:55.346Z,51.70
2022-12-01T11:21:55.452Z,51.90
2022-12-01T11:22:55.329Z,57.40
2022-12-01T11:23:55.314Z,52.70
2022-12-01T11:24:55.340Z,55.00
2022-12-01T11:25:55.285Z,59.70
2022-12-01T11:26:55.281Z,57.10
2022-12-01T11:27:55.273Z,59.40
2022-12-01T11:28:55.251Z,58.10
2022-12-01T11:29:55.287Z,60.20
2022-12-01T11:30:56.686Z,57.50
2022-12-01T11:31:55.251Z,58.60
2022-12-01T11:32:55.243Z,58.50
2022-12-01T11:33:55.224Z,59.80
2022-12-01T11:34:55.189Z,60.40
2022-12-01T11:35:55.205Z,59.40
2022-12-01T11:36:55.195Z,59.60
2022-12-01T11:38:27.692Z,61.40
2022-12-01T11:38:56.155Z,60.30
2022-12-01T11:39:55.132Z,60.80
2022-12-01T11:40:55.122Z,58.10
2022-12-01T11:41:55.128Z,58.70
2022-12-01T11:42:55.100Z,58.00
2022-12-01T11:44:01.612Z,58.60
2022-12-01T11:44:56.085Z,61.90
2022-12-01T11:45:55.144Z,58.90
2022-12-01T11:47:07.681Z,59.30
2022-12-01T11:47:56.054Z,57.40
2022-12-01T11:48:55.043Z,60.80
2022-12-01T11:49:55.032Z,58.50
2022-12-01T11:50:55.035Z,62.60
2022-12-01T11:51:55.003Z,61.70
2022-12-01T11:52:54.994Z,63.80
2022-12-01T11:53:54.978Z,58.60
2022-12-01T11:54:54.976Z,65.60
2022-12-01T11:55:54.982Z,59.40
2022-12-01T11:57:25.326Z,61.60
2022-12-01T11:57:55.944Z,58.10
2022-12-01T11:58:54.977Z,62.00
2022-12-01T11:59:54.952Z,60.10
2022-12-01T12:00:54.905Z,70.30
2022-12-01T12:01:54.925Z,59.80
2022-12-01T12:02:54.881Z,62.50
2022-12-01T12:03:54.906Z,64.30
2022-12-01T12:04:54.871Z,59.20
2022-12-01T12:06:01.287Z,60.90
2022-12-01T12:06:55.867Z,59.10
2022-12-01T12:07:54.854Z,57.50
2022-12-01T12:08:54.841Z,61.10
2022-12-01T12:09:54.806Z,62.40
2022-12-01T12:10:54.868Z,63.50
2022-12-01T12:11:54.793Z,60.10
2022-12-01T12:12:54.778Z,60.40
2022-12-01T12:13:54.776Z,65.00
2022-12-01T12:14:54.776Z,65.20
2022-12-01T12:15:54.749Z,60.00
2022-12-01T12:16:54.733Z,66.80
2022-12-01T12:17:54.761Z,66.80
2022-12-01T12:18:54.712Z,62.90
2022-12-01T12:20:10.443Z,62.70
2022-12-01T12:20:55.688Z,60.90
2022-12-01T12:21:54.706Z,65.80
2022-12-01T12:22:55.880Z,68.20
2022-12-01T12:23:54.687Z,66.60
2022-12-01T12:24:54.658Z,68.10
2022-12-01T12:25:54.632Z,67.70
2022-12-01T12:26:54.624Z,66.40
2022-12-01T12:27:54.664Z,70.70
2022-12-01T12:28:54.614Z,65.40
2022-12-01T12:29:54.620Z,60.80
2022-12-01T12:30:54.593Z,65.70
2022-12-01T12:31:54.565Z,62.40
2022-12-01T12:32:54.569Z,64.80
2022-12-01T12:33:54.572Z,67.30
2022-12-01T12:34:54.556Z,66.60
2022-12-01T12:35:54.545Z,65.30
2022-12-01T12:36:54.519Z,71.10
2022-12-01T12:37:54.511Z,63.10
2022-12-01T12:38:54.497Z,63.40
2022-12-01T12:39:54.496Z,64.40
2022-12-01T12:40:54.496Z,58.80
2022-12-01T12:41:54.477Z,58.80
2022-12-01T12:42:54.514Z,63.70
2022-12-01T12:43:54.439Z,64.80
2022-12-01T12:44:54.475Z,66.50
2022-12-01T12:45:54.503Z,62.10
2022-12-01T12:46:54.444Z,63.00
2022-12-01T12:47:54.402Z,59.50
2022-12-01T12:49:18.530Z,60.30
2022-12-01T12:49:55.372Z,61.70
2022-12-01T12:50:54.385Z,61.90
2022-12-01T12:51:54.373Z,64.80
2022-12-01T12:52:54.417Z,66.60